Time;durP1;ratioP1;P1;durP2;ratioP2;P2;SDS_P1;SDS_P2;PMS_P1;PMS_P2;Temp;Humidity;BMP_temperature;BMP_pressure;BME280_temperature;BME280_humidity;BME280_pressure;Samples;Min_cycle;Max_cycle;Signal;HPM_P1;HPM_P2
2023/11/10 00:02:18;;;;;;;1.80;1.70;;;8.40;99.90;;;9.10;91.14;96685.06;10441644;28;20252;-65
2023/11/10 00:07:23;;;;;;;2.15;2.05;;;8.40;99.90;;;9.09;91.08;96675.69;10442486;28;20227;-65
2023/11/10 00:12:26;;;;;;;2.10;1.90;;;8.40;99.90;;;9.02;91.28;96674.56;10443220;28;20229;-64
2023/11/10 00:17:29;;;;;;;2.20;2.08;;;8.40;99.90;;;9.02;91.62;96677.09;10445703;28;20316;-67
2023/11/10 00:22:34;;;;;;;2.00;1.90;;;8.40;99.90;;;9.01;92.78;96675.34;10436305;28;20433;-66
2023/11/10 00:27:37;;;;;;;2.23;2.13;;;8.40;99.90;;;8.90;93.26;96684.19;10445298;28;20232;-65
2023/11/10 00:32:40;;;;;;;2.90;2.70;;;8.30;99.90;;;9.14;94.37;96704.81;10440335;28;20256;-65
2023/11/10 00:37:45;;;;;;;2.70;2.50;;;8.40;99.90;;;8.53;98.83;96718.22;10438603;28;20746;-64
2023/11/10 00:42:48;;;;;;;2.77;2.57;;;8.00;99.90;;;8.32;100.00;96710.41;10448540;28;20267;-64
2023/11/10 00:47:51;;;;;;;2.60;2.50;;;7.80;99.90;;;8.21;100.00;96696.28;10438735;28;20623;-65
2023/11/10 00:52:56;;;;;;;2.93;2.67;;;7.60;99.90;;;8.03;100.00;96692.06;10442483;28;20225;-64
2023/11/10 00:57:59;;;;;;;2.80;2.60;;;7.50;99.90;;;8.02;100.00;96700.50;10437972;28;20239;-65
2023/11/10 01:03:04;;;;;;;2.63;2.53;;;7.50;99.90;;;7.99;100.00;96691.88;10429857;28;20230;-64
2023/11/10 01:08:08;;;;;;;2.70;2.50;;;7.40;99.90;;;7.92;100.00;96670.34;10438309;28;20324;-63
2023/11/10 01:13:14;;;;;;;2.77;2.57;;;7.40;99.90;;;7.91;100.00;96671.16;10433042;28;20225;-64
2023/11/10 01:18:17;;;;;;;3.17;2.97;;;7.40;99.90;;;7.91;100.00;96676.22;10433500;28;20731;-64
2023/11/10 01:23:22;;;;;;;5.40;4.80;;;7.30;99.90;;;7.80;100.00;96673.16;10438985;28;20316;-65
2023/11/10 01:28:25;;;;;;;4.30;3.90;;;7.20;99.90;;;7.85;100.00;96660.69;10436438;28;20233;-63
2023/11/10 01:33:29;;;;;;;3.87;3.57;;;7.20;99.90;;;7.67;100.00;96661.53;10432899;28;20579;-64
2023/11/10 01:38:35;;;;;;;3.77;3.20;;;7.20;99.90;;;7.77;100.00;96661.97;10438959;28;20224;-64
2023/11/10 01:43:38;;;;;;;3.47;3.17;;;7.20;99.90;;;7.75;100.00;96648.31;10438225;28;20236;-64
2023/11/10 01:48:41;;;;;;;2.73;2.57;;;7.20;99.90;;;7.76;100.00;96635.69;10443313;28;20228;-64
2023/11/10 01:53:46;;;;;;;3.00;2.50;;;7.30;99.90;;;7.73;100.00;96634.66;10447676;28;20225;-63
2023/11/10 01:58:49;;;;;;;2.60;2.40;;;7.20;99.90;;;7.73;100.00;96621.94;10446228;28;20239;-64
2023/11/10 02:03:52;;;;;;;2.20;2.10;;;7.20;99.90;;;7.77;100.00;96622.16;10449740;28;20240;-66
2023/11/10 02:08:57;;;;;;;2.30;2.20;;;7.20;99.90;;;7.82;100.00;96617.28;10446168;28;20222;-65
2023/11/10 02:14:01;;;;;;;3.10;2.90;;;7.30;99.90;;;7.83;100.00;96617.34;10441282;28;20229;-66
2023/11/10 02:19:15;;;;;;;2.57;2.47;;;7.30;99.90;;;7.81;100.00;96603.72;10446574;28;20221;-64
2023/11/10 02:24:24;;;;;;;2.80;2.70;;;7.30;99.90;;;7.81;100.00;96600.25;10443279;28;20228;-64
2023/11/10 02:29:28;;;;;;;3.10;2.90;;;7.30;99.90;;;7.88;100.00;96598.09;10445586;28;20244;-64
2023/11/10 02:34:31;;;;;;;2.90;2.70;;;7.30;99.90;;;7.86;100.00;96592.06;10445749;28;20245;-65
2023/11/10 02:39:36;;;;;;;3.37;3.17;;;7.30;99.90;;;7.91;100.00;96597.38;10443010;28;20736;-66
2023/11/10 02:44:40;;;;;;;3.40;3.20;;;7.40;99.90;;;8.03;100.00;96592.84;10440384;28;20612;-63
2023/11/10 02:49:43;;;;;;;5.00;3.70;;;7.40;99.90;;;7.96;100.00;96598.47;10445099;28;20221;-64
2023/11/10 02:54:46;;;;;;;4.00;3.67;;;7.40;99.90;;;7.94;100.00;96594.97;10440217;28;20311;-66
2023/11/10 02:59:51;;;;;;;4.13;3.73;;;7.40;99.90;;;7.90;100.00;96596.50;10443311;28;20279;-64
2023/11/10 03:04:54;;;;;;;4.10;3.80;;;7.40;99.90;;;7.90;100.00;96588.00;10442984;28;20239;-64
2023/11/10 03:09:58;;;;;;;3.90;3.60;;;7.40;99.90;;;7.84;100.00;96585.16;10442822;28;20253;-64
2023/11/10 03:15:03;;;;;;;3.70;3.40;;;7.30;99.90;;;7.84;100.00;96592.78;10443500;28;20320;-65
2023/11/10 03:20:09;;;;;;;3.53;3.33;;;7.30;99.90;;;7.84;100.00;96582.59;10434127;28;20225;-65
2023/11/10 03:25:12;;;;;;;3.60;3.30;;;7.30;99.90;;;7.82;100.00;96574.06;10443439;28;20232;-64
2023/11/10 03:30:17;;;;;;;3.60;3.40;;;7.30;99.90;;;7.83;100.00;96566.47;10438650;28;20217;-64
2023/11/10 03:35:20;;;;;;;3.93;3.13;;;7.30;99.90;;;7.88;100.00;96565.03;10442415;28;20229;-64
2023/11/10 03:40:25;;;;;;;3.43;3.20;;;7.40;99.90;;;7.90;100.00;96565.09;10437296;28;20770;-64
2023/11/10 03:45:30;;;;;;;3.43;3.23;;;7.40;99.90;;;7.83;100.00;96560.53;10441941;28;20611;-63
2023/11/10 03:50:33;;;;;;;3.17;2.97;;;7.30;99.90;;;7.88;100.00;96553.97;10445118;28;20726;-64
2023/11/10 03:55:36;;;;;;;3.00;2.80;;;7.30;99.90;;;7.88;100.00;96561.63;10441665;28;20225;-64
2023/11/10 04:00:40;;;;;;;3.60;3.40;;;7.30;99.90;;;8.18;100.00;96566.34;10439388;28;20355;-64
2023/11/10 04:05:51;;;;;;;3.63;3.43;;;7.40;99.90;;;7.89;100.00;96570.97;10443895;28;20373;-65
2023/11/10 04:10:54;;;;;;;3.63;3.40;;;7.30;99.90;;;7.73;100.00;96573.63;10440443;28;20225;-66
2023/11/10 04:15:59;;;;;;;3.70;3.50;;;7.20;99.90;;;7.72;100.00;96562.56;10437498;28;20225;-63
2023/11/10 04:21:02;;;;;;;3.37;3.03;;;7.20;99.90;;;7.70;100.00;96565.81;10441560;28;20244;-66
2023/11/10 04:26:06;;;;;;;3.07;2.87;;;7.20;99.90;;;7.76;100.00;96564.47;10438634;28;20240;-64
2023/11/10 04:31:10;;;;;;;3.23;3.03;;;7.20;99.90;;;7.76;100.00;96568.69;10434232;28;20594;-63
2023/11/10 04:36:14;;;;;;;3.57;3.37;;;7.20;99.90;;;7.98;100.00;96581.56;10441353;28;20224;-64
2023/11/10 04:41:22;;;;;;;3.63;3.43;;;7.30;99.90;;;7.83;100.00;96570.69;10439679;28;20224;-65
2023/11/10 04:46:26;;;;;;;3.90;3.70;;;7.20;99.90;;;7.76;100.00;96568.69;10438376;28;20238;-67
2023/11/10 04:51:31;;;;;;;4.83;4.43;;;7.20;99.90;;;7.79;100.00;96569.69;10438177;28;20766;-62
2023/11/10 04:56:43;;;;;;;3.87;3.53;;;7.20;99.90;;;7.79;100.00;96573.91;10435141;28;20739;-65
2023/11/10 05:01:49;;;;;;;3.60;2.97;;;7.20;99.90;;;7.75;100.00;96574.56;10435305;28;20311;-64
2023/11/10 05:06:52;;;;;;;4.57;4.17;;;7.20;99.90;;;7.80;100.00;96575.66;10438698;28;20235;-64
2023/11/10 05:11:55;;;;;;;3.83;3.23;;;7.20;99.90;;;7.73;100.00;96569.41;10433731;28;20238;-64
2023/11/10 05:17:00;;;;;;;2.03;1.93;;;7.20;99.90;;;7.76;100.00;96581.41;10432910;28;20228;-65
2023/11/10 05:22:04;;;;;;;1.83;1.73;;;7.20;99.90;;;7.73;100.00;96593.97;10435022;28;20311;-67
2023/11/10 05:27:07;;;;;;;1.60;1.50;;;7.20;99.90;;;7.73;100.00;96597.38;10437527;28;20235;-64
2023/11/10 05:32:11;;;;;;;1.70;1.60;;;7.10;99.90;;;7.72;100.00;96592.22;10434985;28;20229;-65
2023/11/10 05:37:15;;;;;;;2.37;2.17;;;7.20;99.90;;;7.69;100.00;96590.38;10436116;28;20266;-64
2023/11/10 05:42:18;;;;;;;1.83;1.73;;;7.20;99.90;;;7.70;100.00;96589.63;10433870;28;20236;-66
2023/11/10 05:47:22;;;;;;;1.70;1.70;;;7.20;99.90;;;7.73;100.00;96599.06;10430452;28;20313;-63
2023/11/10 05:52:27;;;;;;;1.50;1.50;;;7.20;99.90;;;7.74;100.00;96606.75;10432913;28;20236;-65
2023/11/10 05:57:30;;;;;;;1.47;1.47;;;7.20;99.90;;;7.76;100.00;96601.75;10436375;28;20303;-64
2023/11/10 06:02:35;;;;;;;1.57;1.47;;;7.20;99.90;;;7.74;100.00;96601.66;10431704;28;20315;-64
2023/11/10 06:07:38;;;;;;;2.07;1.63;;;7.20;99.90;;;7.74;100.00;96600.78;10429118;28;20359;-65
2023/11/10 06:12:42;;;;;;;2.13;1.90;;;7.20;99.90;;;7.74;100.00;96605.88;10423956;28;20221;-65
2023/11/10 06:17:46;;;;;;;2.00;1.87;;;7.20;99.90;;;7.77;100.00;96608.56;10428871;28;20225;-65
2023/11/10 06:22:49;;;;;;;2.40;1.93;;;7.20;99.90;;;7.80;100.00;96621.44;10424200;28;20225;-65
2023/11/10 06:27:53;;;;;;;2.10;2.00;;;7.20;99.90;;;7.80;100.00;96629.06;10428052;28;20240;-65
2023/11/10 06:32:57;;;;;;;2.07;1.97;;;7.20;99.90;;;7.80;100.00;96636.69;10432829;28;20271;-65
2023/11/10 06:38:01;;;;;;;2.07;1.97;;;7.20;99.90;;;7.86;100.00;96627.66;10443768;28;20340;-65
2023/11/10 06:43:04;;;;;;;2.33;2.23;;;7.30;99.90;;;7.81;100.00;96634.22;10432922;28;20232;-65
2023/11/10 06:48:09;;;;;;;2.30;2.20;;;7.20;99.90;;;7.81;100.00;96634.22;10433900;28;20816;-65
2023/11/10 06:53:12;;;;;;;3.60;2.30;;;7.20;99.90;;;7.85;100.00;96635.25;10433777;28;20235;-66
2023/11/10 06:58:17;;;;;;;2.43;2.33;;;7.30;99.90;;;7.87;100.00;96646.38;10439679;28;20232;-66
2023/11/10 07:03:22;;;;;;;3.27;3.00;;;7.30;99.90;;;7.86;100.00;96652.25;10435361;28;20236;-65
2023/11/10 07:08:25;;;;;;;3.27;2.90;;;7.20;99.90;;;7.86;100.00;96650.56;10430419;28;20327;-65
2023/11/10 07:13:28;;;;;;;3.43;3.17;;;7.30;99.90;;;7.89;100.00;96649.84;10431896;28;20872;-65
2023/11/10 07:18:34;;;;;;;2.93;2.80;;;7.30;99.90;;;7.93;100.00;96654.28;10431415;28;20730;-65
2023/11/10 07:23:37;;;;;;;4.23;3.83;;;7.30;99.90;;;8.10;100.00;96658.50;10430302;28;20229;-65
2023/11/10 07:28:40;;;;;;;8.90;8.10;;;7.40;99.90;;;8.07;100.00;96663.44;10436821;28;20216;-65
2023/11/10 07:33:44;;;;;;;4.53;4.17;;;7.50;99.90;;;7.96;100.00;96656.97;10439532;28;20229;-65
2023/11/10 07:38:48;;;;;;;2.87;2.53;;;7.40;99.90;;;7.97;100.00;96673.09;10428991;28;20578;-66
2023/11/10 07:43:51;;;;;;;2.27;2.17;;;7.40;99.90;;;7.98;100.00;96673.16;10426126;28;20229;-65
2023/11/10 07:48:56;;;;;;;2.40;2.20;;;7.40;99.90;;;8.01;100.00;96672.44;10426316;28;20235;-65
2023/11/10 07:53:59;;;;;;;2.70;1.90;;;7.30;99.90;;;8.07;100.00;96663.44;10428859;28;20264;-66
2023/11/10 07:59:03;;;;;;;1.83;1.73;;;7.50;99.90;;;8.12;100.00;96656.88;10440734;28;20229;-66
2023/11/10 08:04:07;;;;;;;2.33;2.23;;;7.50;99.90;;;8.12;100.00;96667.06;10435483;28;20228;-66
2023/11/10 08:09:11;;;;;;;2.03;1.93;;;7.50;99.90;;;8.54;100.00;96667.34;10425965;28;20306;-66
2023/11/10 08:14:15;;;;;;;2.00;1.90;;;8.00;99.90;;;9.10;100.00;96669.78;10429060;28;20840;-67
2023/11/10 08:19:19;;;;;;;1.70;1.60;;;8.50;99.90;;;9.58;100.00;96665.00;10428186;28;20239;-67
2023/11/10 08:24:22;;;;;;;1.73;1.63;;;8.90;99.90;;;10.00;100.00;96670.97;10426274;28;20243;-66
2023/11/10 08:29:26;;;;;;;1.67;1.58;;;9.20;99.90;;;9.98;100.00;96666.63;10426546;28;20239;-66
2023/11/10 08:34:31;;;;;;;1.50;1.40;;;9.30;99.90;;;10.02;100.00;96671.06;10426730;28;20232;-66
2023/11/10 08:39:34;;;;;;;2.45;1.40;;;9.30;99.90;;;10.07;100.00;96674.63;10427965;28;20235;-65
2023/11/10 08:44:37;;;;;;;1.83;1.33;;;9.30;99.90;;;10.12;98.13;96681.66;10427106;28;20324;-66
2023/11/10 08:49:46;;;;;;;1.75;1.65;;;9.40;99.90;;;10.23;95.64;96687.22;10428455;28;20221;-65
2023/11/10 08:54:49;;;;;;;1.85;1.40;;;9.60;99.90;;;10.15;94.38;96691.13;10425588;28;20716;-65
2023/11/10 08:59:53;;;;;;;1.77;1.35;;;9.70;99.90;;;9.92;96.82;96692.78;10424654;28;20225;-66
2023/11/10 09:04:57;;;;;;;1.52;1.48;;;9.30;99.90;;;9.78;95.48;96691.34;10425940;28;20237;-66
2023/11/10 09:10:01;;;;;;;2.20;1.63;;;9.30;99.90;;;9.82;97.41;96706.84;10426365;28;20225;-67
2023/11/10 09:15:05;;;;;;;2.25;1.80;;;9.20;99.90;;;9.66;99.71;96714.66;10424472;28;20236;-68
2023/11/10 09:20:13;;;;;;;1.58;1.58;;;8.90;99.90;;;9.41;99.15;96708.56;10425960;28;20217;-66
2023/11/10 09:25:20;;;;;;;3.80;1.53;;;8.80;99.90;;;9.11;100.00;96700.44;10425496;28;20375;-66
2023/11/10 09:30:26;;;;;;;1.58;1.48;;;8.50;99.90;;;9.13;100.00;96695.38;10425984;28;20331;-66
2023/11/10 09:35:33;;;;;;;1.55;1.45;;;8.60;99.90;;;9.48;100.00;96686.72;10424556;28;20229;-65
2023/11/10 09:40:37;;;;;;;1.25;1.25;;;8.90;99.90;;;9.87;100.00;96691.72;10425307;28;20225;-66
2023/11/10 09:45:45;;;;;;;1.40;1.30;;;9.30;99.90;;;10.36;97.09;96686.91;10428137;28;20610;-65
2023/11/10 09:50:52;;;;;;;1.40;1.40;;;9.80;99.90;;;10.59;94.80;96681.81;10424304;28;20228;-67
2023/11/10 09:55:55;;;;;;;1.50;1.40;;;10.10;99.90;;;10.72;93.14;96689.13;10434107;28;20719;-67
2023/11/10 10:00:59;;;;;;;1.40;1.30;;;10.30;99.90;;;10.99;90.88;96671.38;10434323;28;20222;-67
2023/11/10 10:06:04;;;;;;;1.83;1.73;;;10.60;99.90;;;11.10;87.84;96669.19;10439033;28;20217;-73
2023/11/10 10:11:08;;;;;;;1.63;1.38;;;10.70;99.90;;;11.20;87.56;96661.03;10433362;28;20743;-65
2023/11/10 10:16:13;;;;;;;1.25;1.20;;;10.80;99.90;;;11.35;86.54;96657.25;10430593;28;20217;-66
2023/11/10 10:21:17;;;;;;;1.42;1.25;;;10.90;99.90;;;11.68;84.54;96649.88;10431630;28;21100;-65
2023/11/10 10:26:22;;;;;;;1.05;1.05;;;11.20;99.90;;;11.94;84.11;96648.19;10434430;28;20232;-66
2023/11/10 10:31:25;;;;;;;1.05;1.05;;;11.40;99.90;;;12.04;78.72;96639.94;10431599;28;20243;-65
2023/11/10 10:36:31;;;;;;;1.13;1.13;;;11.50;99.90;;;12.22;77.26;96631.09;10431944;28;20363;-65
2023/11/10 10:41:35;;;;;;;0.90;0.90;;;11.90;99.90;;;12.47;74.70;96628.44;10433710;28;20225;-65
2023/11/10 10:46:39;;;;;;;1.20;1.20;;;12.20;99.90;;;12.66;71.92;96626.44;10431745;28;20243;-66
2023/11/10 10:51:46;;;;;;;1.40;1.30;;;12.20;99.90;;;12.78;70.81;96616.53;10431577;28;20340;-66
2023/11/10 10:56:51;;;;;;;1.10;1.10;;;12.40;99.90;;;12.73;70.71;96618.94;10430424;28;20221;-66
2023/11/10 11:01:56;;;;;;;1.15;1.13;;;12.20;99.90;;;12.11;71.28;96625.66;10428794;28;20229;-65
2023/11/10 11:07:35;;;;;;;1.00;1.00;;;11.60;99.90;;;12.05;71.62;96621.22;10428879;28;20298;-65
2023/11/10 11:13:17;;;;;;;1.17;1.13;;;11.60;99.90;;;11.86;72.19;96603.53;10428706;28;20225;-65
2023/11/10 11:18:42;;;;;;;1.40;1.40;;;11.40;99.90;;;11.72;78.31;96610.72;10427478;28;20224;-65
2023/11/10 11:23:50;;;;;;;2.03;1.30;;;11.20;99.90;;;11.95;79.30;96611.50;10424961;28;20232;-65
2023/11/10 11:29:04;;;;;;;1.10;1.10;;;11.50;99.90;;;11.83;78.75;96608.53;10425411;28;20229;-66
2023/11/10 11:34:08;;;;;;;0.90;0.90;;;11.00;99.90;;;11.72;79.74;96603.91;10424805;28;20232;-67
2023/11/10 11:39:16;;;;;;;1.20;1.20;;;10.80;99.90;;;11.54;80.39;96605.91;10425938;28;20228;-67
2023/11/10 11:44:26;;;;;;;1.27;1.27;;;10.70;99.90;;;11.42;82.84;96615.72;10429539;28;20235;-65
2023/11/10 11:49:30;;;;;;;1.13;1.10;;;10.60;99.90;;;11.78;82.10;96607.50;10425281;28;20232;-67
2023/11/10 11:54:36;;;;;;;1.02;1.02;;;10.90;99.90;;;11.86;79.18;96604.41;10426413;28;20613;-66
2023/11/10 11:59:39;;;;;;;1.10;1.10;;;11.00;99.90;;;11.52;79.44;96607.53;10440562;28;20217;-65
2023/11/10 12:04:42;;;;;;;1.30;1.00;;;10.70;99.90;;;11.41;83.40;96603.75;10428142;28;20221;-65
2023/11/10 12:09:48;;;;;;;1.27;1.27;;;10.60;99.90;;;11.04;87.27;96603.38;10437444;28;20344;-65
2023/11/10 12:14:51;;;;;;;1.52;1.50;;;10.30;99.90;;;10.77;89.11;96597.28;10432377;28;20247;-64
2023/11/10 12:19:55;;;;;;;1.42;1.35;;;10.10;99.90;;;10.96;85.95;96601.34;10435815;28;20612;-66
2023/11/10 12:25:02;;;;;;;1.70;1.60;;;10.20;99.90;;;10.49;83.26;96593.72;10437078;28;20601;-65
2023/11/10 12:30:07;;;;;;;2.13;1.70;;;9.80;99.90;;;10.15;86.05;96601.78;10428515;28;20355;-66
2023/11/10 12:35:12;;;;;;;1.70;1.60;;;9.40;99.90;;;10.21;85.00;96594.34;10437152;28;20355;-67
2023/11/10 12:40:18;;;;;;;1.83;1.73;;;9.60;99.90;;;10.15;85.53;96600.09;10430911;28;20671;-66
2023/11/10 12:45:23;;;;;;;1.55;1.48;;;9.40;99.90;;;9.92;86.68;96594.09;10432039;28;20225;-66
2023/11/10 12:50:30;;;;;;;2.65;1.73;;;9.20;99.90;;;9.91;86.42;96594.06;10438158;28;20229;-66
2023/11/10 12:55:35;;;;;;;1.83;1.73;;;9.20;99.90;;;9.83;86.97;96596.31;10429940;28;20231;-65
2023/11/10 13:00:43;;;;;;;1.92;1.83;;;9.20;99.90;;;9.78;89.23;96590.13;10420886;28;20311;-66
2023/11/10 13:05:48;;;;;;;1.70;1.70;;;9.20;99.90;;;10.21;86.59;96586.69;10435204;28;20260;-66
2023/11/10 13:10:53;;;;;;;1.52;1.48;;;9.70;99.90;;;10.47;87.58;96590.25;10430107;28;20470;-65
2023/11/10 13:15:57;;;;;;;1.65;1.55;;;9.90;99.90;;;10.48;85.87;96597.09;10429684;28;20237;-66
2023/11/10 13:21:00;;;;;;;1.83;1.73;;;9.90;99.90;;;10.41;85.82;96595.13;10435596;28;20621;-66
2023/11/10 13:26:05;;;;;;;1.60;1.60;;;9.80;99.90;;;10.29;85.53;96590.44;10426622;28;20225;-66
2023/11/10 13:31:08;;;;;;;1.40;1.30;;;9.70;99.90;;;10.15;88.51;96594.13;10435058;28;20233;-65
2023/11/10 13:36:30;;;;;;;2.42;1.75;;;9.50;99.90;;;10.22;85.85;96596.09;10433642;28;20900;-65
2023/11/10 13:41:34;;;;;;;1.80;1.70;;;9.50;99.90;;;10.20;87.65;96600.28;10438135;28;20229;-65
2023/11/10 13:46:50;;;;;;;1.98;1.80;;;9.60;99.90;;;10.27;86.14;96597.19;10436011;28;20232;-65
2023/11/10 13:51:55;;;;;;;2.28;1.80;;;9.60;99.90;;;10.43;85.12;96592.63;10446121;28;20815;-65
2023/11/10 13:57:00;;;;;;;1.60;1.50;;;9.70;99.90;;;10.28;84.58;96586.16;10436645;28;20275;-65
2023/11/10 14:02:03;;;;;;;1.52;1.50;;;9.60;99.90;;;10.54;79.00;96584.56;10437732;28;20669;-66
2023/11/10 14:07:07;;;;;;;1.83;1.55;;;9.90;99.90;;;10.57;78.84;96583.78;10439495;28;20240;-65
2023/11/10 14:12:12;;;;;;;1.50;1.40;;;9.90;99.90;;;10.46;79.41;96585.09;10441085;28;20260;-64
2023/11/10 14:17:17;;;;;;;1.77;1.67;;;9.80;99.90;;;10.31;81.03;96586.25;10429401;28;20232;-65
2023/11/10 14:22:23;;;;;;;2.67;2.55;;;9.50;99.90;;;10.15;82.67;96594.13;10432214;28;20708;-66
2023/11/10 14:27:27;;;;;;;2.13;1.92;;;9.30;99.90;;;10.01;84.93;96591.03;10434291;28;20217;-66
2023/11/10 14:32:31;;;;;;;1.70;1.60;;;9.10;99.90;;;9.81;85.09;96590.25;10435212;28;20669;-66
2023/11/10 14:37:34;;;;;;;2.03;1.92;;;9.00;99.90;;;9.81;85.48;96591.94;10427153;28;20263;-66
2023/11/10 14:42:39;;;;;;;2.35;1.85;;;8.90;99.90;;;9.74;84.94;96582.31;10425441;28;20307;-66
2023/11/10 14:47:42;;;;;;;1.85;1.70;;;8.90;99.90;;;9.76;84.57;96591.78;10427874;28;20229;-66
2023/11/10 14:52:45;;;;;;;2.28;1.88;;;8.90;99.90;;;9.67;86.17;96593.94;10423204;28;20618;-66
2023/11/10 14:57:50;;;;;;;2.85;2.65;;;8.90;99.90;;;9.59;88.17;96591.09;10429212;28;20239;-67
2023/11/10 15:02:56;;;;;;;4.15;2.90;;;8.80;99.90;;;9.45;88.88;96598.19;10429821;28;20240;-67
2023/11/10 15:07:59;;;;;;;4.63;3.35;;;8.70;99.90;;;9.37;90.30;96599.56;10432731;28;20229;-67
2023/11/10 15:13:07;;;;;;;4.63;3.30;;;8.60;99.90;;;9.24;90.15;96597.28;10424218;28;20736;-66
2023/11/10 15:18:14;;;;;;;5.03;4.47;;;8.50;99.90;;;9.11;91.59;96593.38;10418990;28;20727;-66
2023/11/10 15:23:19;;;;;;;11.43;8.82;;;8.30;99.90;;;8.94;91.97;96592.66;10422131;28;20705;-66
2023/11/10 15:28:26;;;;;;;10.38;8.82;;;8.10;99.90;;;8.78;93.19;96600.44;10422744;28;20229;-67
2023/11/10 15:33:34;;;;;;;10.27;7.70;;;8.00;99.90;;;8.53;93.89;96589.22;10429795;28;20559;-65
2023/11/10 15:38:38;;;;;;;11.20;8.70;;;7.70;99.90;;;8.42;94.63;96603.13;10425986;28;20275;-66
2023/11/10 15:43:42;;;;;;;11.10;9.90;;;7.60;99.90;;;8.34;94.26;96594.25;10423570;28;20608;-66
2023/11/10 15:48:46;;;;;;;9.60;8.10;;;7.50;99.90;;;8.26;95.43;96600.66;10427852;28;20225;-66
2023/11/10 15:53:52;;;;;;;93.57;56.47;;;7.50;99.90;;;8.18;94.46;96594.34;10428082;28;20253;-66
2023/11/10 15:58:56;;;;;;;89.50;50.00;;;7.40;99.90;;;8.06;94.83;96592.97;10427560;28;20229;-66
2023/11/10 16:04:01;;;;;;;30.17;20.50;;;7.30;99.90;;;8.08;94.87;96598.16;10426335;28;20243;-65
2023/11/10 16:09:05;;;;;;;10.47;9.50;;;7.30;99.90;;;7.98;93.43;96603.59;10421910;28;20229;-65
2023/11/10 16:14:09;;;;;;;11.90;10.07;;;7.20;99.90;;;7.96;93.77;96611.19;10430782;28;20240;-66
2023/11/10 16:19:17;;;;;;;10.10;9.10;;;7.20;99.90;;;7.90;93.45;96611.75;10429120;28;20756;-66
2023/11/10 16:24:20;;;;;;;13.17;11.27;;;7.10;99.90;;;7.82;94.81;96625.78;10416174;28;20231;-67
2023/11/10 16:29:25;;;;;;;25.70;21.43;;;7.10;99.90;;;7.63;95.37;96624.03;10430436;28;20220;-65
2023/11/10 16:34:28;;;;;;;19.97;16.93;;;6.90;99.90;;;7.50;96.52;96629.34;10433907;28;20225;-66
2023/11/10 16:39:32;;;;;;;25.23;18.17;;;6.80;99.90;;;7.48;96.77;96630.06;10431204;28;20880;-67
2023/11/10 16:44:39;;;;;;;17.67;15.03;;;6.70;99.90;;;7.35;96.62;96633.66;10435428;28;20341;-65
2023/11/10 16:49:42;;;;;;;17.77;15.20;;;6.60;99.90;;;7.29;97.17;96628.28;10436052;28;20243;-65
2023/11/10 16:54:46;;;;;;;33.67;30.07;;;6.50;99.90;;;7.11;97.38;96631.63;10434308;28;20224;-65
2023/11/10 16:59:50;;;;;;;16.23;14.50;;;6.40;99.90;;;7.05;97.99;96625.38;10433791;28;20252;-66
2023/11/10 17:04:53;;;;;;;38.67;34.03;;;6.30;99.90;;;6.94;97.96;96627.38;10431791;28;20225;-66
2023/11/10 17:09:57;;;;;;;15.40;13.90;;;6.20;99.90;;;6.74;98.32;96627.22;10439085;28;20229;-66
2023/11/10 17:15:02;;;;;;;15.07;13.57;;;6.00;99.90;;;6.82;98.21;96626.75;10434676;28;20232;-65
2023/11/10 17:20:09;;;;;;;12.77;11.47;;;6.10;99.90;;;6.86;98.77;96628.66;10435858;28;20315;-66
2023/11/10 17:25:12;;;;;;;20.07;17.77;;;6.20;99.90;;;6.93;99.03;96638.34;10439142;28;20434;-65
2023/11/10 17:30:18;;;;;;;28.37;20.10;;;6.20;99.90;;;6.94;100.00;96638.41;10434109;28;20221;-65
2023/11/10 17:35:21;;;;;;;26.03;19.27;;;6.30;99.90;;;6.97;100.00;96640.22;10430963;28;20617;-66
2023/11/10 17:40:27;;;;;;;23.90;16.03;;;6.30;99.90;;;7.00;100.00;96635.31;10430579;28;20261;-67
2023/11/10 17:45:31;;;;;;;22.07;16.40;;;6.30;99.90;;;6.98;100.00;96629.25;10426742;28;20621;-66
2023/11/10 17:50:35;;;;;;;38.57;31.87;;;6.40;99.90;;;6.96;100.00;96628.34;10434039;28;20221;-64
2023/11/10 17:55:40;;;;;;;32.30;24.40;;;6.30;99.90;;;6.91;100.00;96619.59;10434697;28;20237;-66
2023/11/10 18:00:44;;;;;;;31.30;21.67;;;6.30;99.90;;;6.86;100.00;96624.44;10433688;28;20515;-65
2023/11/10 18:05:47;;;;;;;22.23;16.50;;;6.30;99.90;;;6.80;100.00;96629.22;10430860;28;20225;-66
2023/11/10 18:10:52;;;;;;;19.60;16.13;;;6.20;99.90;;;6.77;100.00;96614.69;10416760;28;20224;-65
2023/11/10 18:15:56;;;;;;;19.47;16.63;;;6.20;99.90;;;6.85;100.00;96616.75;10415872;28;20227;-65
2023/11/10 18:21:00;;;;;;;14.57;12.13;;;6.30;99.90;;;6.84;100.00;96602.28;10417340;28;20313;-66
2023/11/10 18:26:03;;;;;;;11.53;10.00;;;6.20;99.90;;;6.73;100.00;96595.03;10422788;28;20244;-67
2023/11/10 18:31:07;;;;;;;10.73;9.73;;;6.10;99.90;;;6.60;100.00;96590.09;10424805;28;20225;-65
2023/11/10 18:36:11;;;;;;;11.07;10.07;;;6.00;99.90;;;6.58;100.00;96599.31;10430041;28;20557;-65
2023/11/10 18:41:14;;;;;;;8.80;8.00;;;6.00;99.90;;;6.53;100.00;96590.59;10426905;28;20700;-65
2023/11/10 18:46:19;;;;;;;15.43;13.00;;;5.90;99.90;;;6.35;100.00;96593.03;10428503;28;20606;-65
2023/11/10 18:51:22;;;;;;;11.67;9.70;;;5.70;99.90;;;6.32;100.00;96591.22;10424509;28;20382;-65
2023/11/10 18:56:25;;;;;;;14.10;12.37;;;5.70;99.90;;;6.33;100.00;96589.56;10433946;28;20236;-64
2023/11/10 19:01:30;;;;;;;10.77;9.70;;;5.60;99.90;;;6.20;100.00;96587.16;10428223;28;20259;-65
2023/11/10 19:06:34;;;;;;;11.53;9.80;;;5.60;99.90;;;6.13;100.00;96596.09;10425648;28;20229;-65
2023/11/10 19:11:38;;;;;;;11.77;10.57;;;5.50;99.90;;;6.05;100.00;96587.22;10426162;28;20241;-65
2023/11/10 19:16:42;;;;;;;10.20;9.03;;;5.40;99.90;;;5.96;100.00;96591.78;10420880;28;20682;-66
2023/11/10 19:21:45;;;;;;;8.97;7.87;;;5.30;99.90;;;5.91;100.00;96585.56;10421411;28;20665;-65
2023/11/10 19:26:49;;;;;;;8.60;7.77;;;5.30;99.90;;;5.94;100.00;96578.16;10426358;28;20628;-66
2023/11/10 19:31:53;;;;;;;11.33;8.90;;;5.30;99.90;;;6.01;100.00;96570.06;10424169;28;20252;-66
2023/11/10 19:36:56;;;;;;;7.37;6.60;;;5.40;99.90;;;6.04;99.47;96570.25;10421344;28;20233;-65
2023/11/10 19:42:02;;;;;;;7.23;6.53;;;5.50;99.90;;;6.20;99.69;96566.84;10426283;28;20257;-65
2023/11/10 19:47:08;;;;;;;7.20;6.53;;;5.60;99.90;;;6.30;98.80;96569.97;10423366;28;20599;-66
2023/11/10 19:52:15;;;;;;;13.17;11.60;;;5.80;99.90;;;6.40;98.13;96570.44;10418691;28;20628;-64
2023/11/10 19:57:21;;;;;;;15.50;14.00;;;5.70;99.90;;;6.28;99.07;96561.38;10434167;28;20224;-64
2023/11/10 20:02:26;;;;;;;8.10;7.40;;;5.60;99.90;;;6.20;99.61;96557.56;10429489;28;20272;-65
2023/11/10 20:07:30;;;;;;;5.50;4.90;;;5.50;99.90;;;6.29;99.17;96552.09;10433169;28;20229;-66
2023/11/10 20:12:33;;;;;;;5.97;5.37;;;5.60;99.90;;;6.08;100.00;96546.78;10426146;28;20233;-65
2023/11/10 20:17:39;;;;;;;7.67;6.93;;;5.40;99.90;;;6.06;100.00;96543.28;10429500;28;20244;-66
2023/11/10 20:22:42;;;;;;;7.07;4.30;;;5.40;99.90;;;6.05;99.65;96536.50;10426548;28;20233;-66
2023/11/10 20:27:45;;;;;;;9.00;8.03;;;5.40;99.90;;;6.13;99.51;96534.38;10426844;28;20615;-65
2023/11/10 20:32:50;;;;;;;8.27;5.60;;;5.40;99.90;;;6.05;100.00;96531.41;10425927;28;20253;-66
2023/11/10 20:37:55;;;;;;;5.63;5.20;;;5.30;99.90;;;5.90;99.83;96526.38;10438160;28;20327;-66
2023/11/10 20:42:58;;;;;;;8.70;5.90;;;5.20;99.90;;;5.74;100.00;96514.53;10437892;28;20233;-65
2023/11/10 20:48:03;;;;;;;7.33;6.73;;;5.10;99.90;;;5.70;100.00;96520.25;10438791;28;20233;-65
2023/11/10 20:53:08;;;;;;;7.70;6.93;;;5.10;99.90;;;5.66;100.00;96513.25;10428677;28;20317;-65
2023/11/10 20:58:11;;;;;;;6.93;5.40;;;5.00;99.90;;;5.70;100.00;96516.84;10434100;28;20218;-64
2023/11/10 21:03:16;;;;;;;6.87;6.00;;;5.10;99.90;;;5.69;99.62;96521.00;10397637;28;1098923;-66
2023/11/10 21:08:19;;;;;;;7.07;6.37;;;5.10;99.90;;;5.57;100.00;96515.28;10440313;28;20659;-65
2023/11/10 21:13:23;;;;;;;6.33;5.73;;;4.90;99.90;;;5.47;100.00;96516.47;10437575;28;20228;-65
2023/11/10 21:18:27;;;;;;;7.53;5.40;;;4.90;99.90;;;5.34;100.00;96506.44;10439451;28;20722;-64